Time;durP1;ratioP1;P1;durP2;ratioP2;P2;SDS_P1;SDS_P2;PMS_P1;PMS_P2;Temp;Humidity;BMP_temperature;BMP_pressure;BME280_temperature;BME280_humidity;BME280_pressure;Samples;Min_cycle;Max_cycle;Signal;HPM_P1;HPM_P2
2023/07/14 00:01:46;;;;;;;12.23;7.70;;;;;;;15.23;100.00;101605.88;4976880;28;20093;-89
2023/07/14 00:04:16;;;;;;;11.17;7.30;;;;;;;15.20;100.00;101605.53;4977448;28;20026;-89
2023/07/14 00:06:41;;;;;;;12.15;7.45;;;;;;;15.12;100.00;101603.94;4994967;28;20022;-89
2023/07/14 00:09:25;;;;;;;12.18;6.78;;;;;;;15.07;100.00;101603.78;4994582;28;20459;-89
2023/07/14 00:11:51;;;;;;;8.47;6.30;;;;;;;15.07;100.00;101595.56;4977092;28;20057;-89
2023/07/14 00:14:17;;;;;;;12.55;6.65;;;;;;;15.09;100.00;101591.56;4976898;28;20034;-89
2023/07/14 00:16:44;;;;;;;10.70;6.68;;;;;;;15.13;100.00;101594.66;4976508;28;20041;-89
2023/07/14 00:19:17;;;;;;;10.37;5.87;;;;;;;15.13;100.00;101599.28;4994532;28;20026;-88
2023/07/14 00:21:44;;;;;;;8.65;5.50;;;;;;;15.09;100.00;101586.09;4994694;28;20031;-88
2023/07/14 00:24:16;;;;;;;8.55;5.90;;;;;;;15.11;100.00;101579.56;4976980;28;20034;-89
2023/07/14 00:26:57;;;;;;;10.85;6.25;;;;;;;15.19;100.00;101591.03;4976934;28;20430;-89
2023/07/14 00:29:34;;;;;;;13.60;6.43;;;;;;;15.24;100.00;101593.06;4977368;28;20041;-88
2023/07/14 00:32:12;;;;;;;6.83;5.87;;;;;;;15.24;100.00;101596.63;4976620;28;20058;-89
2023/07/14 00:34:40;;;;;;;9.50;6.55;;;;;;;15.20;100.00;101589.94;4994358;28;20026;-89
2023/07/14 00:37:08;;;;;;;11.45;6.80;;;;;;;15.20;100.00;101583.66;4960750;28;20045;-89
2023/07/14 00:39:46;;;;;;;12.27;7.40;;;;;;;15.19;100.00;101593.75;4976908;28;20422;-89
2023/07/14 00:42:17;;;;;;;12.88;6.97;;;;;;;15.24;100.00;101584.88;4977108;28;20041;-87
2023/07/14 00:44:47;;;;;;;10.63;7.50;;;;;;;15.23;100.00;101580.47;4976198;28;20042;-88
2023/07/14 00:47:24;;;;;;;10.00;7.32;;;;;;;15.27;100.00;101568.84;4975861;28;20133;-89
2023/07/14 00:49:55;;;;;;;10.57;7.18;;;;;;;15.35;100.00;101583.25;4994028;28;20035;-89
2023/07/14 00:52:29;;;;;;;11.85;7.45;;;;;;;15.22;100.00;101574.19;4976763;28;20030;-89
2023/07/14 00:54:57;;;;;;;11.90;7.10;;;;;;;15.24;100.00;101576.69;4977232;28;20045;-89
2023/07/14 00:57:28;;;;;;;14.70;7.53;;;;;;;15.18;100.00;101567.50;4976700;28;20395;-89
2023/07/14 01:00:00;;;;;;;10.20;7.72;;;;;;;15.24;100.00;101582.16;4961328;28;20062;-89
2023/07/14 01:02:33;;;;;;;13.68;7.78;;;;;;;15.21;100.00;101568.94;4994014;28;20054;-90
2023/07/14 01:05:08;;;;;;;10.00;7.18;;;;;;;15.25;100.00;101573.72;4977013;28;20387;-89
2023/07/14 01:07:46;;;;;;;12.23;7.28;;;;;;;15.31;100.00;101565.66;4976892;28;20062;-89
2023/07/14 01:10:23;;;;;;;13.17;7.47;;;;;;;15.33;100.00;101572.56;4960446;28;20446;-89
2023/07/14 01:13:02;;;;;;;12.93;7.63;;;;;;;15.37;100.00;101570.22;4976585;28;20118;-89
2023/07/14 01:15:30;;;;;;;10.18;7.88;;;;;;;15.41;100.00;101576.88;4980092;28;20040;-89
2023/07/14 01:18:01;;;;;;;14.27;7.32;;;;;;;15.39;100.00;101576.28;4980579;28;20169;-89
2023/07/14 01:20:29;;;;;;;12.07;8.20;;;;;;;15.37;100.00;101564.75;4997759;28;20037;-89
2023/07/14 01:23:22;;;;;;;12.63;8.03;;;;;;;15.36;100.00;101572.09;4997619;28;20509;-89
2023/07/14 01:26:15;;;;;;;13.73;7.65;;;;;;;15.34;100.00;101570.66;4980592;28;20070;-89
2023/07/14 01:28:42;;;;;;;10.48;8.07;;;;;;;15.25;100.00;101560.03;4980415;28;20030;-89
2023/07/14 01:31:15;;;;;;;13.55;8.07;;;;;;;15.22;100.00;101557.78;4980198;28;20382;-89
2023/07/14 01:33:43;;;;;;;11.65;8.43;;;;;;;15.24;100.00;101560.28;4980110;28;20050;-89
2023/07/14 01:36:11;;;;;;;10.23;7.93;;;;;;;15.26;100.00;101559.00;4980222;28;20034;-89
2023/07/14 01:38:40;;;;;;;11.57;8.52;;;;;;;15.26;100.00;101556.25;4979866;28;20026;-89
2023/07/14 01:41:07;;;;;;;14.77;8.43;;;;;;;15.23;100.00;101558.59;4979869;28;20034;-89
2023/07/14 01:43:36;;;;;;;10.48;8.95;;;;;;;15.22;100.00;101546.84;4997339;28;20466;-89
2023/07/14 01:46:10;;;;;;;16.35;8.82;;;;;;;15.18;100.00;101542.88;4980028;28;20463;-89
2023/07/14 01:48:57;;;;;;;;;;;;;;;;;;;;;
2023/07/14 01:51:27;;;;;;;10.75;7.90;;;;;;;15.07;100.00;101541.75;4997782;28;20033;-90
2023/07/14 01:54:02;;;;;;;10.82;7.82;;;;;;;15.13;100.00;101556.38;4979426;28;20475;-89
2023/07/14 01:56:29;;;;;;;14.15;8.52;;;;;;;15.03;100.00;101548.75;4979854;28;20030;-89
2023/07/14 01:59:04;;;;;;;11.63;8.07;;;;;;;15.04;100.00;101547.69;4996922;28;20044;-89
2023/07/14 02:01:32;;;;;;;15.83;8.07;;;;;;;15.04;100.00;101552.31;4979557;28;20038;-89
2023/07/14 02:04:13;;;;;;;15.30;8.65;;;;;;;15.07;100.00;101557.31;4980187;28;20053;-89
2023/07/14 02:06:41;;;;;;;11.65;8.02;;;;;;;14.99;100.00;101543.97;4979567;28;20107;-89
2023/07/14 02:09:18;;;;;;;11.05;8.20;;;;;;;15.01;100.00;101555.50;4979635;28;20045;-89
2023/07/14 02:11:49;;;;;;;13.85;8.60;;;;;;;14.88;100.00;101540.94;4979480;28;20027;-89
2023/07/14 02:14:23;;;;;;;11.53;8.83;;;;;;;14.85;100.00;101540.53;4996702;28;20117;-89
2023/07/14 02:16:51;;;;;;;14.25;8.10;;;;;;;14.90;100.00;101549.72;4979003;28;20044;-89
2023/07/14 02:19:24;;;;;;;11.43;8.77;;;;;;;14.91;100.00;101545.94;4979532;28;20061;-89
2023/07/14 02:22:07;;;;;;;12.93;9.45;;;;;;;14.83;100.00;101535.28;4979190;28;20475;-89
2023/07/14 02:24:33;;;;;;;12.77;9.45;;;;;;;14.76;100.00;101530.97;4995602;28;20062;-89
2023/07/14 02:27:02;;;;;;;12.23;9.37;;;;;;;14.73;100.00;101535.00;4996093;28;20077;-89
2023/07/14 02:29:34;;;;;;;11.60;8.82;;;;;;;14.61;100.00;101529.44;4979018;28;20033;-89
2023/07/14 02:32:17;;;;;;;12.32;9.20;;;;;;;14.55;100.00;101524.84;4979262;28;20043;-89
2023/07/14 02:38:05;;;;;;;13.25;8.50;;;;;;;14.49;100.00;101539.41;4996708;28;20042;-89
2023/07/14 02:40:58;;;;;;;11.70;8.93;;;;;;;14.36;100.00;101529.44;4964649;28;20034;-89
2023/07/14 02:43:26;;;;;;;10.40;8.98;;;;;;;14.32;100.00;101531.78;4968072;28;20394;-89
2023/07/14 02:46:25;;;;;;;13.32;9.25;;;;;;;14.28;100.00;101536.03;4978314;28;20038;-89
2023/07/14 02:48:53;;;;;;;12.20;9.50;;;;;;;14.31;100.00;101540.22;4950803;28;20042;-89
2023/07/14 02:51:21;;;;;;;15.15;9.93;;;;;;;14.29;100.00;101531.38;4996054;28;20026;-89
2023/07/14 02:53:55;;;;;;;11.23;9.53;;;;;;;14.32;100.00;101537.25;4978659;28;20030;-89
2023/07/14 02:56:28;;;;;;;14.30;9.73;;;;;;;14.40;100.00;101538.84;4996143;28;20035;-89
2023/07/14 02:58:54;;;;;;;15.65;9.57;;;;;;;14.34;100.00;101520.66;4978697;28;20117;-89
2023/07/14 03:01:24;;;;;;;14.87;9.60;;;;;;;14.35;100.00;101520.44;4978276;28;20060;-89
2023/07/14 03:03:53;;;;;;;9.95;8.95;;;;;;;14.35;100.00;101525.88;4978717;28;20045;-89
2023/07/14 03:06:26;;;;;;;11.68;8.68;;;;;;;14.41;100.00;101529.63;4996076;28;20041;-89
2023/07/14 03:08:54;;;;;;;12.70;8.35;;;;;;;14.39;100.00;101531.72;4978331;28;20038;-89
2023/07/14 03:11:25;;;;;;;13.33;8.70;;;;;;;14.45;100.00;101528.09;4978565;28;20042;-89
2023/07/14 03:13:53;;;;;;;15.02;8.55;;;;;;;14.56;100.00;101541.00;4978248;28;20109;-89
2023/07/14 03:16:22;;;;;;;15.02;8.55;;;;;;;14.60;100.00;101530.50;4962084;28;20069;-89
2023/07/14 03:18:50;;;;;;;13.13;9.13;;;;;;;14.55;100.00;101520.22;4978113;28;20027;-89
2023/07/14 03:21:17;;;;;;;10.77;8.80;;;;;;;14.64;100.00;101520.78;4978113;28;20049;-89
2023/07/14 03:23:43;;;;;;;12.20;7.43;;;;;;;14.62;100.00;101509.28;4977866;28;20438;-89
2023/07/14 03:26:09;;;;;;;14.02;7.95;;;;;;;14.71;100.00;101518.81;4978076;28;20039;-89
2023/07/14 03:28:36;;;;;;;10.95;8.02;;;;;;;14.72;100.00;101519.69;4978310;28;20057;-89
2023/07/14 03:31:02;;;;;;;9.47;6.77;;;;;;;14.71;100.00;101520.72;4995435;28;20030;-90
2023/07/14 03:33:41;;;;;;;9.55;6.80;;;;;;;14.68;100.00;101507.53;4977479;28;20038;-89
2023/07/14 03:36:10;;;;;;;9.85;7.05;;;;;;;14.70;100.00;101508.97;4978192;28;20049;-88
2023/07/14 03:38:40;;;;;;;10.25;6.80;;;;;;;14.72;100.00;101512.31;4978075;28;20458;-89
2023/07/14 03:41:07;;;;;;;11.77;6.63;;;;;;;14.69;100.00;101507.31;4977842;28;20034;-89
2023/07/14 03:43:38;;;;;;;8.70;6.27;;;;;;;14.68;100.00;101505.63;4977798;28;20023;-89
2023/07/14 03:46:04;;;;;;;10.98;6.45;;;;;;;14.64;100.00;101509.88;4977282;28;20394;-89
2023/07/14 03:48:29;;;;;;;8.52;6.57;;;;;;;14.63;100.00;101504.63;4977611;28;20041;-89
2023/07/14 03:51:04;;;;;;;12.70;6.17;;;;;;;14.55;100.00;101495.63;4977367;28;20390;-89
2023/07/14 03:53:32;;;;;;;12.63;6.47;;;;;;;14.59;100.00;101500.69;4977229;28;20023;-88
2023/07/14 03:56:03;;;;;;;11.18;6.22;;;;;;;14.55;100.00;101492.09;4977635;28;20038;-88
2023/07/14 03:58:28;;;;;;;10.13;6.23;;;;;;;14.56;100.00;101491.03;4977926;28;20467;-88
2023/07/14 04:01:09;;;;;;;;;;;;;;;;;;;;;
2023/07/14 04:03:36;;;;;;;11.73;6.25;;;;;;;14.60;100.00;101503.19;4994967;28;20050;-89
2023/07/14 04:06:07;;;;;;;9.00;5.80;;;;;;;14.53;100.00;101496.94;4994800;28;20062;-89
2023/07/14 04:08:42;;;;;;;7.78;5.75;;;;;;;14.57;100.00;101498.16;4961881;28;20422;-89
2023/07/14 04:11:12;;;;;;;8.48;6.03;;;;;;;14.56;100.00;101496.50;4994549;28;20030;-88
2023/07/14 04:13:42;;;;;;;11.68;6.50;;;;;;;14.61;100.00;101507.59;4976904;28;20030;-89
2023/07/14 04:16:09;;;;;;;14.02;6.15;;;;;;;14.63;100.00;101504.63;4946223;28;20046;-88
2023/07/14 04:18:35;;;;;;;8.73;5.43;;;;;;;14.63;100.00;101493.72;4977816;28;20630;-89
2023/07/14 04:21:08;;;;;;;8.82;5.70;;;;;;;14.59;100.00;101481.56;4977408;28;20026;-88
2023/07/14 04:23:34;;;;;;;6.20;5.30;;;;;;;14.59;100.00;101482.38;4977255;28;20034;-89
2023/07/14 04:26:11;;;;;;;;;;;;;;;;;;;;;
2023/07/14 04:28:46;;;;;;;11.20;5.30;;;;;;;14.70;100.00;101498.06;4994477;28;20025;-89
2023/07/14 04:31:15;;;;;;;9.80;5.57;;;;;;;14.68;100.00;101494.69;4977496;28;20026;-89
2023/07/14 04:33:51;;;;;;;9.52;5.25;;;;;;;14.68;100.00;101485.69;4994213;28;20050;-89
2023/07/14 04:36:24;;;;;;;7.47;4.93;;;;;;;14.70;100.00;101484.41;4976790;28;20137;-89
2023/07/14 04:39:05;;;;;;;8.47;5.20;;;;;;;14.67;100.00;101484.81;4976877;28;20034;-89
2023/07/14 04:41:41;;;;;;;9.73;4.93;;;;;;;14.61;100.00;101487.63;4977432;28;20030;-91
2023/07/14 04:44:16;;;;;;;8.65;5.18;;;;;;;14.66;100.00;101488.66;4962171;28;20049;-89
2023/07/14 04:46:47;;;;;;;7.15;5.32;;;;;;;14.66;100.00;101496.84;4976115;28;20442;-88
2023/07/14 04:49:15;;;;;;;10.68;5.13;;;;;;;14.56;100.00;101485.56;4975538;28;20407;-89
2023/07/14 04:51:47;;;;;;;9.07;5.20;;;;;;;14.57;100.00;101495.41;4976814;28;20040;-89
2023/07/14 04:54:18;;;;;;;10.20;5.10;;;;;;;14.55;100.00;101509.28;4976820;28;20497;-89
2023/07/14 04:56:46;;;;;;;8.52;5.07;;;;;;;14.46;100.00;101497.00;4977017;28;20434;-89
2023/07/14 04:59:14;;;;;;;9.63;5.70;;;;;;;14.46;100.00;101504.38;4976712;28;20038;-89
2023/07/14 05:01:44;;;;;;;8.45;5.30;;;;;;;14.51;100.00;101510.84;4993996;28;20042;-88
2023/07/14 05:04:15;;;;;;;7.97;5.57;;;;;;;14.44;100.00;101492.81;4976696;28;20394;-89
2023/07/14 05:06:46;;;;;;;8.65;4.90;;;;;;;14.58;100.00;101494.34;4994154;28;20030;-89
2023/07/14 05:09:17;;;;;;;11.23;5.90;;;;;;;14.67;100.00;101495.75;4976529;28;20045;-88
2023/07/14 05:11:42;;;;;;;8.55;5.30;;;;;;;14.68;100.00;101485.69;4976451;28;20402;-88
2023/07/14 05:14:11;;;;;;;9.43;5.30;;;;;;;14.71;100.00;101487.97;4976410;28;20030;-89
2023/07/14 05:16:41;;;;;;;9.07;4.95;;;;;;;14.73;100.00;101486.69;4993358;28;20126;-89
2023/07/14 05:19:24;;;;;;;9.13;5.68;;;;;;;14.79;100.00;101475.88;4994002;28;20501;-89
2023/07/14 05:21:49;;;;;;;7.43;5.20;;;;;;;14.90;100.00;101481.41;4976569;28;20494;-89
2023/07/14 05:24:31;;;;;;;10.63;5.22;;;;;;;15.02;100.00;101483.41;4993710;28;20040;-88
2023/07/14 05:27:00;;;;;;;8.85;5.20;;;;;;;15.21;100.00;101485.03;4962523;28;20042;-89
2023/07/14 05:29:26;;;;;;;7.03;4.87;;;;;;;15.34;100.00;101474.97;4993691;28;20466;-88
2023/07/14 05:31:53;;;;;;;8.13;4.78;;;;;;;15.46;100.00;101483.19;4975937;28;20126;-89
2023/07/14 05:34:19;;;;;;;12.15;5.25;;;;;;;15.48;100.00;101486.56;4993823;28;20042;-91
2023/07/14 05:36:44;;;;;;;7.87;4.70;;;;;;;15.66;100.00;101493.88;4973608;28;20030;-88
2023/07/14 05:39:10;;;;;;;10.53;5.07;;;;;;;15.70;100.00;101489.59;4976299;28;20038;-87
2023/07/14 05:41:35;;;;;;;8.70;5.07;;;;;;;15.79;100.00;101485.47;4960306;28;20034;-88
2023/07/14 05:44:03;;;;;;;11.40;4.80;;;;;;;15.80;100.00;101478.94;4976569;28;20293;-87
2023/07/14 05:46:29;;;;;;;7.30;4.13;;;;;;;15.78;100.00;101481.91;4975725;28;20045;-88
2023/07/14 05:48:54;;;;;;;7.17;4.50;;;;;;;15.74;100.00;101477.13;4993808;28;20030;-91
2023/07/14 05:51:20;;;;;;;9.37;4.50;;;;;;;15.85;100.00;101487.25;4976349;28;20446;-88
2023/07/14 05:53:45;;;;;;;9.88;4.70;;;;;;;15.92;100.00;101488.00;4976135;28;20034;-91
2023/07/14 05:56:11;;;;;;;8.53;4.20;;;;;;;16.01;100.00;101482.19;4976341;28;20474;-90
2023/07/14 05:58:36;;;;;;;7.10;4.10;;;;;;;16.07;100.00;101476.59;4960454;28;20084;-90
2023/07/14 06:01:04;;;;;;;10.13;5.10;;;;;;;16.07;100.00;101471.13;4980327;28;20476;-95
2023/07/14 06:03:30;;;;;;;8.25;4.47;;;;;;;16.11;100.00;101479.69;4964929;28;20070;-93
2023/07/14 06:05:56;;;;;;;7.97;4.10;;;;;;;16.26;100.00;101480.06;4981128;28;20375;-93
2023/07/14 06:08:21;;;;;;;11.60;4.40;;;;;;;16.37;100.00;101489.34;4997733;28;20030;-91
2023/07/14 06:10:48;;;;;;;9.30;4.33;;;;;;;16.50;100.00;101488.25;4996949;28;20034;-91
2023/07/14 06:13:14;;;;;;;9.13;3.88;;;;;;;16.61;99.32;101492.91;4979579;28;20037;-91
2023/07/14 06:15:40;;;;;;;9.57;4.13;;;;;;;16.78;99.84;101490.22;4980087;28;20022;-91
2023/07/14 06:18:11;;;;;;;7.07;3.63;;;;;;;16.88;98.74;101494.31;4978923;28;20061;-91
2023/07/14 06:20:37;;;;;;;8.73;4.30;;;;;;;16.78;98.74;101476.53;4979254;28;20030;-91
2023/07/14 06:23:03;;;;;;;7.22;3.95;;;;;;;16.83;98.73;101478.56;4977748;28;20046;-89
2023/07/14 06:25:29;;;;;;;8.97;4.23;;;;;;;16.91;98.93;101486.44;4996330;28;20034;-90
2023/07/14 06:27:54;;;;;;;7.53;4.50;;;;;;;17.04;98.48;101479.84;4978741;28;20034;-90
2023/07/14 06:30:24;;;;;;;13.50;4.67;;;;;;;17.16;98.03;101479.81;4978667;28;20031;-90
2023/07/14 06:32:49;;;;;;;7.63;4.18;;;;;;;17.27;97.14;101478.94;4969376;28;20399;-92
2023/07/14 06:35:15;;;;;;;7.93;4.03;;;;;;;17.33;95.54;101479.84;4943763;28;20039;-90
2023/07/14 06:37:41;;;;;;;8.67;4.27;;;;;;;17.27;94.69;101473.44;4959090;28;20058;-90
2023/07/14 06:40:09;;;;;;;8.15;3.97;;;;;;;17.29;94.69;101476.78;4959507;28;20471;-90
2023/07/14 06:42:35;;;;;;;9.18;4.32;;;;;;;17.30;93.26;101475.69;4959767;28;20034;-90
2023/07/14 06:45:03;;;;;;;12.50;4.10;;;;;;;17.37;94.13;101475.53;4959397;28;20037;-89
2023/07/14 06:47:30;;;;;;;8.10;3.77;;;;;;;17.51;91.83;101471.41;4976245;28;20033;-90
2023/07/14 06:49:56;;;;;;;7.95;4.07;;;;;;;17.63;91.17;101476.03;4959247;28;20388;-89
2023/07/14 06:52:22;;;;;;;7.80;3.80;;;;;;;17.96;90.89;101466.16;4959190;28;20039;-91
2023/07/14 06:54:47;;;;;;;6.10;3.28;;;;;;;18.36;86.39;101479.66;4959168;28;20449;-91
2023/07/14 06:57:13;;;;;;;6.90;3.50;;;;;;;18.54;87.09;101464.84;4958933;28;20486;-91
2023/07/14 06:59:38;;;;;;;7.17;3.30;;;;;;;18.82;86.12;101462.16;4976208;28;20101;-90
2023/07/14 07:02:05;;;;;;;7.60;3.17;;;;;;;18.73;81.66;101454.38;4959086;28;20037;-91
2023/07/14 07:04:34;;;;;;;6.27;3.20;;;;;;;18.61;81.98;101461.06;4943530;28;20053;-91
2023/07/14 07:07:00;;;;;;;10.65;3.65;;;;;;;18.50;81.96;101458.19;4976199;28;20035;-91
2023/07/14 07:09:26;;;;;;;7.70;3.92;;;;;;;18.42;80.49;101469.59;4943183;28;20497;-91
2023/07/14 07:11:51;;;;;;;6.53;3.03;;;;;;;18.36;82.20;101463.19;4942126;28;20042;-92
2023/07/14 07:14:16;;;;;;;6.37;2.80;;;;;;;18.18;82.38;101450.56;4942940;28;20030;-91
2023/07/14 07:16:42;;;;;;;6.00;2.87;;;;;;;18.17;82.58;101450.81;4958190;28;20035;-91
2023/07/14 07:19:07;;;;;;;5.95;2.80;;;;;;;18.37;83.06;101450.31;4926896;28;20060;-91
2023/07/14 07:21:33;;;;;;;7.30;3.07;;;;;;;18.64;80.82;101444.06;4975855;28;20135;-91
2023/07/14 07:23:58;;;;;;;5.57;2.67;;;;;;;18.76;80.46;101440.13;4958848;28;20542;-91
2023/07/14 07:26:24;;;;;;;5.93;2.60;;;;;;;18.95;80.69;101436.22;4958872;28;20030;-90
2023/07/14 07:28:49;;;;;;;5.07;2.63;;;;;;;19.02;78.13;101437.69;4975866;28;20039;-91
2023/07/14 07:31:15;;;;;;;7.30;2.77;;;;;;;19.06;77.60;101436.09;4975763;28;20035;-91
2023/07/14 07:33:42;;;;;;;5.47;2.57;;;;;;;19.17;77.82;101444.44;4958590;28;20051;-87
2023/07/14 07:36:15;;;;;;;6.30;2.33;;;;;;;19.22;76.80;101447.22;4975940;28;20290;-89
2023/07/14 07:38:47;;;;;;;7.93;2.75;;;;;;;19.20;77.08;101438.44;4958532;28;20026;-89
2023/07/14 07:41:18;;;;;;;3.78;2.22;;;;;;;19.21;75.45;101445.59;4961423;28;20030;-89
2023/07/14 07:43:44;;;;;;;6.38;2.70;;;;;;;19.12;74.94;101431.47;4957221;28;20031;-91
2023/07/14 07:46:21;;;;;;;5.78;2.40;;;;;;;19.11;74.29;101436.13;4957702;28;20334;-91
2023/07/14 07:49:07;;;;;;;5.47;2.37;;;;;;;19.24;74.66;101434.06;4957611;28;20049;-91
2023/07/14 07:51:33;;;;;;;5.60;2.50;;;;;;;19.36;73.15;101431.97;4958319;28;20022;-90
2023/07/14 07:53:59;;;;;;;4.53;2.50;;;;;;;19.56;73.07;101436.00;4958176;28;20027;-90
2023/07/14 07:56:25;;;;;;;4.83;2.50;;;;;;;19.85;72.28;101433.81;4957035;28;20034;-91
2023/07/14 07:58:51;;;;;;;6.43;2.45;;;;;;;19.64;70.66;101438.28;4956071;28;20023;-90
2023/07/14 08:01:20;;;;;;;4.93;2.30;;;;;;;19.43;72.32;101409.78;4958122;28;20372;-90
2023/07/14 08:03:45;;;;;;;5.82;2.47;;;;;;;19.56;71.65;101428.59;4957845;28;20167;-90
2023/07/14 08:06:11;;;;;;;6.38;2.20;;;;;;;19.67;71.61;101421.25;4957686;28;20121;-90
2023/07/14 08:08:37;;;;;;;5.00;2.07;;;;;;;19.60;68.86;101415.13;4956184;28;20035;-91
2023/07/14 08:11:02;;;;;;;2.95;1.80;;;;;;;19.56;67.97;101412.09;4958244;28;20035;-90
2023/07/14 08:13:29;;;;;;;6.43;2.40;;;;;;;19.82;67.62;101419.75;4972300;28;20107;-90
2023/07/14 08:15:55;;;;;;;4.10;2.13;;;;;;;19.75;66.72;101420.78;4957618;28;20388;-91
2023/07/14 08:18:22;;;;;;;7.03;2.40;;;;;;;19.90;66.17;101425.59;4975201;28;20030;-91
2023/07/14 08:20:49;;;;;;;3.92;1.88;;;;;;;19.93;67.04;101407.69;4956613;28;20034;-91
2023/07/14 08:23:15;;;;;;;3.83;1.97;;;;;;;20.16;67.06;101425.75;4957797;28;20514;-90
2023/07/14 08:25:41;;;;;;;5.38;2.05;;;;;;;20.19;66.12;101425.22;4956925;28;20041;-89
2023/07/14 08:28:07;;;;;;;4.80;2.05;;;;;;;20.11;65.54;101412.78;4974841;28;20105;-89
2023/07/14 08:30:32;;;;;;;3.67;2.10;;;;;;;20.15;66.26;101413.91;4972637;28;20031;-89
2023/07/14 08:32:58;;;;;;;6.72;2.35;;;;;;;20.14;65.82;101422.44;4947025;28;20054;-89
2023/07/14 08:35:24;;;;;;;4.23;2.13;;;;;;;20.24;66.65;101418.91;4977266;28;20050;-87
2023/07/14 08:37:50;;;;;;;4.80;2.30;;;;;;;20.16;65.36;101414.75;4957345;28;20479;-90
2023/07/14 08:40:23;;;;;;;4.03;1.83;;;;;;;20.36;65.62;101422.31;4975851;28;20042;-90
2023/07/14 08:43:20;;;;;;;5.43;1.80;;;;;;;20.43;65.60;101424.81;4975736;28;20037;-91
2023/07/14 08:45:53;;;;;;;5.25;2.13;;;;;;;20.37;65.70;101412.91;4977175;28;20030;-91
2023/07/14 08:48:37;;;;;;;4.78;2.22;;;;;;;20.56;66.65;101410.53;4976638;28;20030;-91
2023/07/14 08:51:20;;;;;;;4.03;1.90;;;;;;;20.89;64.86;101410.41;4976876;28;20034;-91
2023/07/14 08:53:52;;;;;;;4.43;2.22;;;;;;;20.96;63.04;101419.25;4976874;28;20442;-91
2023/07/14 08:56:20;;;;;;;3.33;1.90;;;;;;;21.22;63.07;101408.28;4976697;28;20386;-91
2023/07/14 08:58:48;;;;;;;4.57;2.10;;;;;;;21.43;61.94;101411.91;4994023;28;20045;-91
2023/07/14 09:01:20;;;;;;;3.83;2.17;;;;;;;21.53;62.69;101389.84;4994224;28;20037;-91
2023/07/14 09:03:50;;;;;;;4.53;2.10;;;;;;;21.60;60.58;101395.06;4976508;28;20037;-91
2023/07/14 09:06:23;;;;;;;3.35;2.08;;;;;;;21.58;61.08;101395.34;4976972;28;20041;-91
2023/07/14 09:08:50;;;;;;;4.23;2.27;;;;;;;21.47;60.38;101400.03;4976984;28;20031;-90
2023/07/14 09:11:24;;;;;;;5.07;2.10;;;;;;;21.50;60.95;101393.13;4976482;28;20494;-91
2023/07/14 09:13:56;;;;;;;4.68;2.40;;;;;;;21.71;61.86;101388.44;4976676;28;20039;-90
2023/07/14 09:16:24;;;;;;;7.72;2.30;;;;;;;22.01;61.66;101372.94;4975978;28;20053;-92
2023/07/14 09:19:11;;;;;;;5.05;2.20;;;;;;;22.58;61.83;101374.41;4977062;28;20034;-94
2023/07/14 09:21:48;;;;;;;5.27;2.20;;;;;;;22.81;59.56;101376.78;4976629;28;20092;-91
2023/07/14 09:24:22;;;;;;;7.75;2.70;;;;;;;22.57;58.13;101380.22;4974417;28;20121;-90
2023/07/14 09:26:54;;;;;;;4.32;1.95;;;;;;;22.65;59.18;101379.66;4957372;28;20090;-90
2023/07/14 09:29:40;;;;;;;3.13;2.00;;;;;;;22.77;58.34;101363.53;4957547;28;20042;-91
2023/07/14 09:32:11;;;;;;;4.47;2.20;;;;;;;22.97;57.03;101380.31;4974290;28;20506;-90
2023/07/14 09:34:47;;;;;;;4.43;2.30;;;;;;;23.08;56.86;101371.66;4975994;28;20027;-91
2023/07/14 09:37:18;;;;;;;5.75;2.75;;;;;;;23.12;57.08;101360.88;4978189;28;20038;-91
2023/07/14 09:39:46;;;;;;;3.97;2.03;;;;;;;22.85;56.01;101362.09;4969967;28;20042;-90
2023/07/14 09:42:39;;;;;;;5.63;2.40;;;;;;;22.92;58.62;101362.63;4980250;28;20041;-90
2023/07/14 09:45:40;;;;;;;3.60;2.05;;;;;;;23.70;58.06;101359.28;4961146;28;20046;-91
2023/07/14 09:48:26;;;;;;;4.90;2.30;;;;;;;24.37;55.01;101341.94;4965038;28;20151;-91
2023/07/14 09:50:52;;;;;;;6.50;2.80;;;;;;;24.82;51.21;101359.09;4997542;28;20037;-91
2023/07/14 09:53:17;;;;;;;5.87;2.40;;;;;;;24.83;51.41;101349.63;4979605;28;20030;-91
2023/07/14 09:55:55;;;;;;;4.13;2.30;;;;;;;24.59;51.37;101333.06;4979782;28;20038;-91
2023/07/14 09:58:25;;;;;;;3.87;2.27;;;;;;;24.67;51.67;101340.72;4979463;28;20269;-91
2023/07/14 10:00:54;;;;;;;5.40;2.65;;;;;;;24.89;51.68;101342.06;4979949;28;20445;-90
2023/07/14 10:03:20;;;;;;;4.65;2.50;;;;;;;24.86;50.52;101330.47;4979563;28;20030;-91
2023/07/14 10:06:02;;;;;;;4.97;2.47;;;;;;;24.84;51.32;101327.13;4979925;28;20391;-90
2023/07/14 10:08:30;;;;;;;5.45;2.30;;;;;;;25.06;49.91;101331.25;4979872;28;20026;-91
2023/07/14 10:10:59;;;;;;;3.73;2.10;;;;;;;25.26;49.48;101324.56;4980211;28;20129;-91
2023/07/14 10:13:32;;;;;;;5.10;2.40;;;;;;;25.51;49.04;101312.22;4979717;28;20022;-91
2023/07/14 10:16:14;;;;;;;5.65;2.30;;;;;;;25.64;49.58;101310.56;4979293;28;20030;-91
2023/07/14 10:19:00;;;;;;;5.68;2.35;;;;;;;25.33;49.21;101304.75;4979389;28;20052;-91
2023/07/14 10:21:34;;;;;;;4.47;2.35;;;;;;;24.88;50.19;101296.84;4979871;28;20262;-91
2023/07/14 10:24:14;;;;;;;6.80;2.40;;;;;;;24.79;50.50;101293.13;4996773;28;20026;-90
2023/07/14 10:27:02;;;;;;;5.72;2.40;;;;;;;25.37;51.46;101295.50;4979263;28;20069;-90
2023/07/14 10:30:02;;;;;;;5.90;2.20;;;;;;;25.95;49.33;101286.91;4996904;28;20026;-92
2023/07/14 10:32:54;;;;;;;5.55;1.77;;;;;;;25.91;47.15;101289.50;4958942;28;20049;-91
2023/07/14 10:35:22;;;;;;;6.70;2.50;;;;;;;26.22;47.69;101284.16;4975632;28;20038;-91
2023/07/14 10:37:56;;;;;;;5.57;2.30;;;;;;;26.73;46.15;101264.69;4979056;28;20030;-91
2023/07/14 10:40:26;;;;;;;5.72;2.33;;;;;;;26.90;44.54;101273.16;4979425;28;20034;-91
2023/07/14 10:43:12;;;;;;;5.75;2.00;;;;;;;26.77;43.58;101269.28;4978720;28;20038;-91
2023/07/14 10:45:39;;;;;;;3.42;1.98;;;;;;;26.83;45.07;101266.41;4977937;28;20033;-91
2023/07/14 10:48:14;;;;;;;6.25;2.10;;;;;;;26.72;44.23;101247.16;4975014;28;20031;-91
2023/07/14 10:50:47;;;;;;;3.70;2.00;;;;;;;26.84;43.80;101263.28;4974098;28;20034;-91
2023/07/14 10:53:21;;;;;;;4.05;2.05;;;;;;;26.68;44.35;101248.09;4995400;28;20112;-91
2023/07/14 10:55:52;;;;;;;3.80;2.00;;;;;;;26.41;45.16;101256.19;4967037;28;20031;-88
2023/07/14 10:58:39;;;;;;;2.65;1.90;;;;;;;26.42;45.72;101257.00;4980819;28;20062;-96
2023/07/14 11:01:14;;;;;;;3.80;2.10;;;;;;;25.81;46.04;101253.59;4959348;28;20442;-90
2023/07/14 11:03:47;;;;;;;3.57;2.23;;;;;;;25.25;46.37;101250.72;4959237;28;20038;-89
2023/07/14 11:06:46;;;;;;;3.30;1.90;;;;;;;25.34;47.71;101250.84;4959493;28;20066;-92
2023/07/14 11:09:14;;;;;;;4.53;2.00;;;;;;;25.96;45.58;101232.97;4977158;28;20086;-89
2023/07/14 11:12:12;;;;;;;4.38;2.20;;;;;;;26.41;45.51;101233.94;4959041;28;20030;-90
2023/07/14 11:14:43;;;;;;;6.43;2.42;;;;;;;26.54;45.19;101229.44;4958937;28;20054;-90
2023/07/14 11:17:24;;;;;;;5.90;2.30;;;;;;;26.27;46.16;101185.88;4958678;28;20387;-90
2023/07/14 11:20:08;;;;;;;4.80;2.50;;;;;;;26.04;45.60;101204.47;4958865;28;20026;-90
2023/07/14 11:22:57;;;;;;;3.88;2.08;;;;;;;26.07;45.26;101210.25;4970327;28;20045;-91
2023/07/14 11:25:33;;;;;;;8.70;2.47;;;;;;;26.15;45.40;101196.72;4958891;28;20434;-90
2023/07/14 11:28:35;;;;;;;4.82;2.55;;;;;;;27.09;45.55;101202.50;4976184;28;20096;-90
2023/07/14 11:31:05;;;;;;;3.43;2.13;;;;;;;28.38;42.13;101196.88;4958664;28;20038;-90
2023/07/14 11:33:35;;;;;;;3.67;2.20;;;;;;;29.17;40.88;101200.41;4958485;28;20054;-91
2023/07/14 11:36:39;;;;;;;5.60;2.85;;;;;;;29.77;40.73;101197.66;4958410;28;20027;-91
2023/07/14 11:39:23;;;;;;;9.63;2.10;;;;;;;30.67;39.00;101191.94;4975987;28;20045;-91
2023/07/14 11:41:51;;;;;;;5.25;2.40;;;;;;;30.86;35.18;101183.00;4958216;28;20368;-91
2023/07/14 11:44:25;;;;;;;3.80;2.40;;;;;;;31.48;35.75;101183.94;4958510;28;20034;-90
2023/07/14 11:46:51;;;;;;;4.07;2.42;;;;;;;32.63;33.76;101169.78;4975302;28;20038;-90